Time;durP1;ratioP1;P1;durP2;ratioP2;P2;SDS_P1;SDS_P2;PMS_P1;PMS_P2;Temp;Humidity;BMP_temperature;BMP_pressure;BME280_temperature;BME280_humidity;BME280_pressure;Samples;Min_cycle;Max_cycle;Signal;HPM_P1;HPM_P2
2023/05/15 00:00:25;;;;;;;23.02;20.45;;;;;;;12.57;92.07;101475.22;5039872;28;20028;-84
2023/05/15 00:02:50;;;;;;;24.40;21.55;;;;;;;12.51;91.95;101467.72;5039850;28;20026;-84
2023/05/15 00:05:15;;;;;;;24.10;21.40;;;;;;;12.52;92.34;101469.41;5031509;28;20037;-84
2023/05/15 00:07:41;;;;;;;25.77;20.67;;;;;;;12.43;91.73;101451.44;5028957;28;20024;-84
2023/05/15 00:10:07;;;;;;;25.00;22.30;;;;;;;12.39;92.34;101453.50;5034377;28;20046;-84
2023/05/15 00:12:32;;;;;;;26.63;22.38;;;;;;;12.39;92.19;101458.81;5038430;28;20035;-84
2023/05/15 00:14:58;;;;;;;24.17;21.55;;;;;;;12.38;91.80;101460.63;5034767;28;20116;-84
2023/05/15 00:17:24;;;;;;;24.45;21.23;;;;;;;12.35;92.45;101458.19;5042543;28;20136;-83
2023/05/15 00:19:50;;;;;;;24.80;22.20;;;;;;;12.36;92.54;101459.06;5038243;28;20072;-83
2023/05/15 00:22:15;;;;;;;28.13;21.30;;;;;;;12.36;91.96;101453.72;5041117;28;20030;-84
2023/05/15 00:24:40;;;;;;;25.55;22.95;;;;;;;12.25;92.03;101457.16;5042959;28;20025;-84
2023/05/15 00:27:06;;;;;;;26.08;22.13;;;;;;;12.19;91.69;101438.97;5041425;28;20052;-84
2023/05/15 00:29:31;;;;;;;27.77;22.75;;;;;;;12.16;92.64;101444.56;5041060;28;20049;-84
2023/05/15 00:31:56;;;;;;;28.40;23.20;;;;;;;12.10;92.21;101447.66;5036516;28;20076;-84
2023/05/15 00:34:24;;;;;;;25.92;21.95;;;;;;;12.07;92.75;101450.53;5031593;28;20498;-84
2023/05/15 00:36:49;;;;;;;26.60;23.77;;;;;;;12.01;92.67;101430.56;5043319;28;20037;-84
2023/05/15 00:39:14;;;;;;;26.83;23.92;;;;;;;11.93;93.62;101430.25;5044221;28;20387;-84
2023/05/15 00:41:42;;;;;;;27.23;22.75;;;;;;;11.88;93.35;101435.88;5039297;28;20564;-84
2023/05/15 00:44:08;;;;;;;27.10;24.30;;;;;;;11.88;93.27;101429.72;5034367;28;20030;-84
2023/05/15 00:46:35;;;;;;;26.15;23.00;;;;;;;11.83;93.10;101430.03;5034669;28;20061;-84
2023/05/15 00:49:03;;;;;;;27.05;22.83;;;;;;;11.89;93.14;101439.38;5031689;28;20057;-85
2023/05/15 00:51:28;;;;;;;25.83;23.02;;;;;;;11.87;93.31;101441.31;5033665;28;20121;-84
2023/05/15 00:53:55;;;;;;;27.50;23.95;;;;;;;11.79;93.26;101436.53;5041114;28;20488;-84
2023/05/15 00:56:21;;;;;;;30.13;24.52;;;;;;;11.78;93.68;101430.38;5041400;28;20102;-84
2023/05/15 00:58:48;;;;;;;25.98;23.35;;;;;;;11.75;93.27;101435.91;5034319;28;20026;-84
2023/05/15 01:01:15;;;;;;;26.92;24.08;;;;;;;11.74;93.22;101433.34;5034403;28;20079;-84
2023/05/15 01:03:41;;;;;;;27.10;24.20;;;;;;;11.71;93.20;101425.59;5029138;28;20025;-84
2023/05/15 01:06:07;;;;;;;29.58;25.25;;;;;;;11.66;93.03;101424.13;5042043;28;20041;-84
2023/05/15 01:08:44;;;;;;;28.05;25.08;;;;;;;11.64;93.06;101420.72;5044010;28;20499;-84
2023/05/15 01:11:12;;;;;;;27.15;23.92;;;;;;;11.65;93.18;101422.41;5028489;28;20112;-84
2023/05/15 01:13:38;;;;;;;28.33;24.45;;;;;;;11.62;93.19;101429.75;5038218;28;20025;-85
2023/05/15 01:16:03;;;;;;;30.25;25.30;;;;;;;11.56;93.81;101417.78;5033405;28;20080;-84
2023/05/15 01:18:32;;;;;;;30.05;25.95;;;;;;;11.59;93.65;101419.34;5044130;28;20092;-84
2023/05/15 01:21:00;;;;;;;29.35;25.15;;;;;;;11.59;93.64;101419.34;5034437;28;20028;-84
2023/05/15 01:23:44;;;;;;;29.30;23.88;;;;;;;11.54;92.97;101418.81;5032258;28;20081;-84
2023/05/15 01:26:28;;;;;;;29.17;25.83;;;;;;;11.55;93.15;101424.03;5035515;28;20038;-85
2023/05/15 01:29:21;;;;;;;28.73;25.63;;;;;;;11.48;92.78;101423.63;5034314;28;20029;-84
2023/05/15 01:31:52;;;;;;;31.95;26.00;;;;;;;11.37;93.17;101412.88;5015185;28;20049;-84
2023/05/15 01:34:22;;;;;;;29.90;25.23;;;;;;;11.26;93.74;101399.53;5034953;28;20464;-84
2023/05/15 01:36:52;;;;;;;32.45;26.15;;;;;;;11.37;93.98;101422.69;5045605;28;20392;-84
2023/05/15 01:39:22;;;;;;;31.85;26.92;;;;;;;11.28;94.20;101414.41;5045831;28;20025;-84
2023/05/15 01:41:59;;;;;;;34.00;26.67;;;;;;;11.26;94.28;101403.03;5044067;28;20029;-84
2023/05/15 01:44:31;;;;;;;29.45;26.35;;;;;;;11.25;93.88;101408.44;5043829;28;20097;-84
2023/05/15 01:47:05;;;;;;;34.53;27.90;;;;;;;11.28;94.20;101411.75;5047162;28;20021;-84
2023/05/15 01:49:32;;;;;;;35.95;28.55;;;;;;;11.16;94.49;101403.75;5050835;28;20037;-84
2023/05/15 01:52:26;;;;;;;32.58;27.30;;;;;;;11.19;94.90;101406.22;5049072;28;20088;-84
2023/05/15 01:54:54;;;;;;;31.50;26.65;;;;;;;11.09;95.09;101395.38;5050974;28;20018;-84
2023/05/15 01:57:20;;;;;;;33.30;28.10;;;;;;;11.08;95.08;101396.34;5044854;28;20056;-83
2023/05/15 01:59:46;;;;;;;32.20;27.95;;;;;;;11.08;94.84;101386.56;5051655;28;20081;-84
2023/05/15 02:02:14;;;;;;;31.83;28.52;;;;;;;11.07;94.92;101395.50;5048248;28;20022;-84
2023/05/15 02:04:40;;;;;;;31.45;28.17;;;;;;;11.05;95.25;101399.22;5048511;28;20025;-84
2023/05/15 02:07:06;;;;;;;31.38;27.63;;;;;;;11.07;95.19;101398.16;5045654;28;20036;-84
2023/05/15 02:09:32;;;;;;;34.03;29.38;;;;;;;10.98;95.56;101389.97;5043568;28;20103;-83
2023/05/15 02:11:59;;;;;;;33.00;28.85;;;;;;;10.96;95.34;101386.56;5040030;28;20479;-84
2023/05/15 02:14:27;;;;;;;34.20;28.20;;;;;;;10.96;95.31;101394.53;5032708;28;20025;-84
2023/05/15 02:16:52;;;;;;;34.85;30.30;;;;;;;10.92;95.60;101397.41;5041215;28;20034;-84
2023/05/15 02:19:17;;;;;;;31.98;28.52;;;;;;;10.96;95.86;101399.84;5031114;28;20108;-84
2023/05/15 02:21:43;;;;;;;33.85;30.15;;;;;;;10.95;95.95;101391.03;5042783;28;20139;-86
2023/05/15 02:24:08;;;;;;;36.63;30.77;;;;;;;10.96;95.82;101400.72;5036607;28;20028;-84
2023/05/15 02:26:46;;;;;;;36.38;31.02;;;;;;;10.94;95.84;101394.63;5029809;28;20022;-84
2023/05/15 02:29:26;;;;;;;37.38;31.90;;;;;;;10.88;96.40;101387.94;5042601;28;20029;-84
2023/05/15 02:32:09;;;;;;;37.45;31.75;;;;;;;10.89;96.36;101394.09;5039157;28;20022;-84
2023/05/15 02:35:01;;;;;;;36.33;31.08;;;;;;;10.89;96.26;101402.94;5042152;28;20033;-84
2023/05/15 02:37:30;;;;;;;37.50;31.33;;;;;;;10.85;96.37;101411.22;5030083;28;20563;-84
2023/05/15 02:39:58;;;;;;;37.07;32.13;;;;;;;10.76;97.09;101417.16;5028358;28;20029;-84
2023/05/15 02:42:25;;;;;;;38.43;31.97;;;;;;;10.72;96.75;101401.44;5030543;28;20283;-84
2023/05/15 02:44:53;;;;;;;41.70;34.75;;;;;;;10.70;97.77;101411.31;5035348;28;20041;-84
2023/05/15 02:47:20;;;;;;;40.13;33.95;;;;;;;10.70;97.47;101413.97;5037034;28;20017;-84
2023/05/15 02:49:46;;;;;;;40.88;34.05;;;;;;;10.71;97.54;101417.50;5038258;28;20037;-84
2023/05/15 02:52:11;;;;;;;39.58;34.65;;;;;;;10.70;97.49;101411.31;5038959;28;20032;-84
2023/05/15 02:54:36;;;;;;;42.53;34.22;;;;;;;10.63;97.56;101412.69;5038470;28;20103;-84
2023/05/15 02:57:02;;;;;;;40.63;34.42;;;;;;;10.67;97.42;101413.31;5034690;28;20053;-84
2023/05/15 02:59:27;;;;;;;38.63;33.45;;;;;;;10.63;97.12;101409.19;5040037;28;20030;-84
2023/05/15 03:01:53;;;;;;;41.42;33.80;;;;;;;10.63;97.59;101410.03;5023387;28;20030;-85
2023/05/15 03:04:19;;;;;;;41.53;34.88;;;;;;;10.53;97.50;101404.50;5034754;28;20021;-84
2023/05/15 03:06:44;;;;;;;44.03;35.15;;;;;;;10.57;98.04;101401.63;5034775;28;20061;-84
2023/05/15 03:09:10;;;;;;;41.10;34.67;;;;;;;10.47;98.05;101402.22;5037373;28;20053;-84
2023/05/15 03:11:35;;;;;;;41.60;34.30;;;;;;;10.49;97.82;101402.13;5039864;28;20112;-84
2023/05/15 03:14:00;;;;;;;39.55;35.22;;;;;;;10.47;98.05;101399.59;5039706;28;20091;-84
2023/05/15 03:16:26;;;;;;;42.90;35.33;;;;;;;10.41;97.97;101385.88;5040965;28;20025;-84
2023/05/15 03:18:51;;;;;;;42.17;35.17;;;;;;;10.44;98.09;101397.16;5042016;28;20021;-84
2023/05/15 03:21:17;;;;;;;46.05;36.83;;;;;;;10.44;98.13;101398.94;5035037;28;20034;-84
2023/05/15 03:23:43;;;;;;;43.58;36.03;;;;;;;10.42;98.42;101393.72;5034945;28;20025;-84
2023/05/15 03:26:08;;;;;;;43.53;36.10;;;;;;;10.35;97.94;101390.63;5030259;28;20483;-84
2023/05/15 03:28:33;;;;;;;45.35;36.17;;;;;;;10.33;97.78;101389.06;5037328;28;20464;-84
2023/05/15 03:30:59;;;;;;;44.35;36.45;;;;;;;10.33;98.62;101397.84;5034767;28;20028;-85
2023/05/15 03:33:24;;;;;;;43.88;37.60;;;;;;;10.27;98.60;101384.94;5027212;28;20514;-84
2023/05/15 03:35:51;;;;;;;46.13;38.17;;;;;;;10.30;98.80;101389.22;5040542;28;20104;-84
2023/05/15 03:38:16;;;;;;;43.10;36.58;;;;;;;10.25;98.36;101388.69;5043344;28;20386;-84
2023/05/15 03:40:42;;;;;;;45.58;38.10;;;;;;;10.19;99.26;101384.59;5030074;28;20168;-84
2023/05/15 03:43:07;;;;;;;47.05;36.63;;;;;;;10.25;98.75;101383.38;5030459;28;20033;-84
2023/05/15 03:45:36;;;;;;;48.60;37.67;;;;;;;10.21;98.82;101384.50;5038457;28;20056;-84
2023/05/15 03:48:01;;;;;;;;;;;;;;;10.33;96.29;101378.44;5039566;28;20026;-84
2023/05/15 03:50:28;;;;;;;45.33;36.60;;;;;;;10.20;97.93;101378.34;5039960;28;20385;-84
2023/05/15 03:52:54;;;;;;;42.35;35.80;;;;;;;10.18;97.72;101377.63;5040074;28;20060;-84
2023/05/15 03:55:19;;;;;;;49.83;37.58;;;;;;;10.12;98.07;101373.53;5031636;28;20041;-84
2023/05/15 03:57:44;;;;;;;44.75;37.28;;;;;;;10.10;97.76;101375.47;5041087;28;20056;-84
2023/05/15 04:00:10;;;;;;;49.90;37.95;;;;;;;10.08;98.19;101379.19;5027840;28;20053;-84
2023/05/15 04:02:36;;;;;;;47.95;39.17;;;;;;;10.08;97.97;101387.16;5041079;28;20033;-84
2023/05/15 04:05:04;;;;;;;47.05;38.30;;;;;;;10.06;98.82;101381.06;5039485;28;20026;-84
2023/05/15 04:07:29;;;;;;;47.50;38.47;;;;;;;10.02;97.89;101380.41;5041349;28;20159;-84
2023/05/15 04:09:54;;;;;;;44.25;38.20;;;;;;;10.01;98.25;101384.03;5039595;28;20463;-84
2023/05/15 04:12:21;;;;;;;46.53;39.30;;;;;;;9.97;98.74;101378.06;5030301;28;20064;-84
2023/05/15 04:14:46;;;;;;;51.78;39.03;;;;;;;9.89;98.35;101374.22;5039942;28;20052;-84
2023/05/15 04:17:11;;;;;;;47.55;39.15;;;;;;;9.94;99.01;101386.25;5038921;28;20074;-83
2023/05/15 04:19:37;;;;;;;47.53;40.45;;;;;;;9.95;99.35;101390.59;5035067;28;20034;-83
2023/05/15 04:22:02;;;;;;;49.53;39.75;;;;;;;9.93;99.90;101387.19;5039826;28;20379;-83
2023/05/15 04:24:27;;;;;;;47.97;39.55;;;;;;;9.91;99.69;101385.56;5029654;28;20057;-83
2023/05/15 04:26:53;;;;;;;49.17;40.20;;;;;;;9.92;99.87;101387.28;5028791;28;20499;-83
2023/05/15 04:29:18;;;;;;;50.57;41.40;;;;;;;9.89;100.00;101391.00;5034666;28;20026;-83
2023/05/15 04:31:43;;;;;;;49.50;40.15;;;;;;;9.87;100.00;101392.88;5043008;28;20292;-83
2023/05/15 04:34:08;;;;;;;47.65;40.58;;;;;;;9.92;100.00;101406.69;5044809;28;20025;-83
2023/05/15 04:36:34;;;;;;;53.80;41.80;;;;;;;9.89;100.00;101400.75;5041689;28;20076;-83
2023/05/15 04:38:59;;;;;;;51.63;42.63;;;;;;;9.87;100.00;101397.34;5028578;28;20026;-83
2023/05/15 04:41:25;;;;;;;52.72;43.13;;;;;;;9.89;100.00;101403.41;5044710;28;20135;-83
2023/05/15 04:43:50;;;;;;;51.15;42.88;;;;;;;9.87;100.00;101406.16;5038640;28;20057;-83
2023/05/15 04:46:16;;;;;;;54.08;43.90;;;;;;;9.79;100.00;101406.66;5054910;28;20036;-83
2023/05/15 04:48:41;;;;;;;55.22;44.17;;;;;;;9.86;100.00;101419.50;5055320;28;20025;-83
2023/05/15 04:51:06;;;;;;;56.17;44.00;;;;;;;9.84;100.00;101414.31;5048368;28;20040;-83
2023/05/15 04:53:31;;;;;;;55.30;44.20;;;;;;;9.82;100.00;101406.47;5059442;28;20026;-83
2023/05/15 04:55:57;;;;;;;53.22;43.28;;;;;;;9.91;100.00;101418.28;5046255;28;20068;-83
2023/05/15 04:58:22;;;;;;;54.67;44.28;;;;;;;9.96;100.00;101423.31;5042690;28;20037;-83
2023/05/15 05:00:47;;;;;;;55.40;45.10;;;;;;;9.97;100.00;101417.88;5043048;28;20049;-83
2023/05/15 05:03:13;;;;;;;60.67;46.28;;;;;;;9.97;100.00;101417.88;5042864;28;20029;-83
2023/05/15 05:05:38;;;;;;;57.15;45.90;;;;;;;10.05;100.00;101420.03;5042522;28;20021;-83
2023/05/15 05:08:03;;;;;;;56.85;46.80;;;;;;;10.02;100.00;101408.78;5034818;28;20032;-83
2023/05/15 05:10:28;;;;;;;57.20;45.70;;;;;;;10.05;100.00;101406.75;5034790;28;20050;-83
2023/05/15 05:12:54;;;;;;;58.50;47.08;;;;;;;10.12;100.00;101416.03;5038625;28;20434;-83
2023/05/15 05:15:19;;;;;;;66.40;48.17;;;;;;;10.13;100.00;101419.53;5042200;28;20045;-83
2023/05/15 05:17:45;;;;;;;60.88;47.75;;;;;;;10.15;100.00;101426.44;5030060;28;20121;-84
2023/05/15 05:20:10;;;;;;;65.80;48.92;;;;;;;10.13;100.00;101414.22;5041505;28;20124;-83
2023/05/15 05:22:36;;;;;;;63.40;48.22;;;;;;;10.18;100.00;101422.75;5042962;28;20025;-84
2023/05/15 05:25:02;;;;;;;60.83;48.03;;;;;;;10.03;100.00;101387.44;5041472;28;20109;-83
2023/05/15 05:27:27;;;;;;;62.35;50.13;;;;;;;10.25;100.00;101423.19;5042582;28;20022;-83
2023/05/15 05:29:53;;;;;;;57.35;48.10;;;;;;;10.23;100.00;101427.75;5042106;28;20112;-83
2023/05/15 05:32:18;;;;;;;61.50;47.50;;;;;;;10.35;100.00;101437.59;5030658;28;20030;-83
2023/05/15 05:34:44;;;;;;;62.95;46.85;;;;;;;10.35;100.00;101433.13;5041493;28;20021;-83
2023/05/15 05:37:09;;;;;;;58.78;45.88;;;;;;;10.37;100.00;101438.34;5043019;28;20056;-83
2023/05/15 05:39:34;;;;;;;66.57;44.58;;;;;;;10.44;100.00;101442.31;5029771;28;20033;-83
2023/05/15 05:41:59;;;;;;;61.05;44.20;;;;;;;10.44;100.00;101442.31;5040929;28;20031;-83
2023/05/15 05:44:25;;;;;;;56.22;42.47;;;;;;;10.42;100.00;101430.91;5040770;28;20033;-83
2023/05/15 05:46:51;;;;;;;59.28;41.90;;;;;;;10.47;100.00;101451.84;5042170;28;20060;-83
2023/05/15 05:49:16;;;;;;;52.50;38.92;;;;;;;10.43;100.00;101445.06;5042349;28;20030;-83
2023/05/15 05:51:44;;;;;;;54.55;38.42;;;;;;;10.45;100.00;101445.81;5037648;28;20052;-83
2023/05/15 05:54:09;;;;;;;50.42;39.22;;;;;;;10.48;100.00;101442.94;5040830;28;20037;-83
2023/05/15 05:56:35;;;;;;;46.83;38.28;;;;;;;10.51;100.00;101440.94;5039824;28;20022;-83
2023/05/15 05:59:00;;;;;;;47.03;38.78;;;;;;;10.57;100.00;101444.13;5038431;28;20064;-83
2023/05/15 06:01:26;;;;;;;47.17;37.95;;;;;;;10.58;100.00;101441.38;5040787;28;20024;-84
2023/05/15 06:03:51;;;;;;;48.92;36.85;;;;;;;10.64;100.00;101443.63;5042201;28;20082;-84
2023/05/15 06:06:17;;;;;;;49.63;38.05;;;;;;;10.69;100.00;101437.97;5039326;28;20052;-84
2023/05/15 06:08:42;;;;;;;43.60;36.47;;;;;;;10.78;100.00;101442.69;5026356;28;20063;-84
2023/05/15 06:11:08;;;;;;;42.97;37.58;;;;;;;10.81;100.00;101439.81;5025493;28;20068;-83
2023/05/15 06:13:33;;;;;;;44.47;37.00;;;;;;;10.90;100.00;101455.13;5041632;28;20175;-84
2023/05/15 06:15:58;;;;;;;43.15;35.63;;;;;;;10.92;100.00;101442.59;5038153;28;20024;-84
2023/05/15 06:18:24;;;;;;;47.22;36.30;;;;;;;10.99;100.00;101443.03;5034518;28;20116;-84
2023/05/15 06:20:49;;;;;;;40.92;35.92;;;;;;;11.00;100.00;101436.75;5036107;28;20398;-84
2023/05/15 06:23:14;;;;;;;42.05;34.42;;;;;;;11.07;100.00;101446.00;5029691;28;20042;-84
2023/05/15 06:25:39;;;;;;;41.83;33.80;;;;;;;11.09;99.26;101445.88;5028273;28;20403;-83
2023/05/15 06:28:05;;;;;;;36.75;32.80;;;;;;;11.08;98.11;101438.88;5034288;28;20645;-84
2023/05/15 06:30:30;;;;;;;37.17;32.95;;;;;;;11.22;99.19;101446.72;5031320;28;20033;-84
2023/05/15 06:32:55;;;;;;;38.13;32.13;;;;;;;11.28;99.16;101441.00;5033367;28;20053;-84
2023/05/15 06:35:22;;;;;;;41.17;31.13;;;;;;;11.30;97.80;101452.38;5043529;28;20436;-84
2023/05/15 06:37:49;;;;;;;41.80;33.30;;;;;;;11.34;97.88;101450.38;5031764;28;20050;-84
2023/05/15 06:40:14;;;;;;;37.35;31.63;;;;;;;11.40;97.89;101447.25;5038344;28;20028;-84
2023/05/15 06:42:40;;;;;;;40.47;32.65;;;;;;;11.50;96.72;101443.97;5036719;28;20519;-84
2023/05/15 06:45:06;;;;;;;38.55;33.72;;;;;;;11.56;97.88;101436.38;5037013;28;20424;-84
2023/05/15 06:47:31;;;;;;;39.13;32.58;;;;;;;11.81;97.06;101446.13;5038702;28;20037;-84
2023/05/15 06:49:56;;;;;;;37.83;33.65;;;;;;;11.93;96.74;101439.09;5042716;28;20029;-84
2023/05/15 06:52:22;;;;;;;38.92;34.67;;;;;;;11.98;95.12;101434.28;5034615;28;20115;-84
2023/05/15 06:54:47;;;;;;;38.78;34.10;;;;;;;12.09;94.52;101430.84;5035941;28;20460;-83
2023/05/15 06:57:12;;;;;;;39.30;33.35;;;;;;;12.24;93.15;101434.19;5040170;28;20095;-84
2023/05/15 06:59:38;;;;;;;39.55;34.88;;;;;;;12.37;92.89;101440.28;5038472;28;20029;-84
2023/05/15 07:02:03;;;;;;;40.07;34.57;;;;;;;12.44;91.32;101435.34;5036270;28;20033;-84
2023/05/15 07:04:29;;;;;;;40.22;34.25;;;;;;;12.53;91.77;101437.31;5043083;28;20364;-84
2023/05/15 07:06:55;;;;;;;39.45;34.97;;;;;;;12.68;89.88;101432.63;5030037;28;20036;-85
2023/05/15 07:09:21;;;;;;;36.20;32.28;;;;;;;13.07;89.56;101435.88;5023934;28;20057;-84
2023/05/15 07:11:46;;;;;;;39.30;33.90;;;;;;;13.38;88.85;101438.00;5026762;28;20110;-83
2023/05/15 07:14:11;;;;;;;41.90;35.95;;;;;;;13.44;86.00;101430.34;5034878;28;20074;-84
2023/05/15 07:16:37;;;;;;;40.58;36.38;;;;;;;13.59;84.56;101443.41;5027886;28;20395;-84
2023/05/15 07:19:02;;;;;;;40.15;35.22;;;;;;;13.77;83.79;101439.31;5032968;28;20029;-85
2023/05/15 07:21:27;;;;;;;39.40;35.15;;;;;;;14.02;81.88;101446.16;5027695;28;20046;-84
2023/05/15 07:23:52;;;;;;;39.20;35.07;;;;;;;14.30;81.74;101433.19;5025293;28;20371;-84
2023/05/15 07:26:18;;;;;;;38.50;34.25;;;;;;;14.60;80.83;101429.81;5033988;28;20334;-85
2023/05/15 07:28:43;;;;;;;40.80;34.95;;;;;;;14.98;80.83;101432.88;5034328;28;20368;-85
2023/05/15 07:31:08;;;;;;;39.05;34.85;;;;;;;15.32;79.50;101432.59;5034689;28;20037;-85
2023/05/15 07:33:34;;;;;;;37.28;33.33;;;;;;;15.51;76.81;101431.84;5034991;28;20052;-84
2023/05/15 07:35:59;;;;;;;38.08;34.25;;;;;;;15.84;75.23;101424.53;5039232;28;20026;-85
2023/05/15 07:38:24;;;;;;;41.70;35.35;;;;;;;16.16;74.25;101413.56;5059587;28;20089;-84
2023/05/15 07:40:50;;;;;;;40.20;35.92;;;;;;;16.46;72.04;101417.91;5056681;28;20037;-84
2023/05/15 07:43:15;;;;;;;40.63;36.25;;;;;;;16.72;70.76;101416.47;5054481;28;20045;-84
2023/05/15 07:45:41;;;;;;;39.33;35.20;;;;;;;17.10;69.32;101420.97;5046712;28;20024;-84
2023/05/15 07:48:17;;;;;;;41.40;36.78;;;;;;;17.30;69.72;101413.69;5054535;28;20290;-84
2023/05/15 07:50:45;;;;;;;42.33;37.83;;;;;;;17.57;70.23;101414.69;5051401;28;20048;-85
2023/05/15 07:53:23;;;;;;;41.22;36.80;;;;;;;17.75;69.40;101417.38;5040190;28;20185;-86
2023/05/15 07:55:49;;;;;;;42.70;38.28;;;;;;;17.85;67.77;101407.44;5043896;28;20033;-85
2023/05/15 07:58:16;;;;;;;43.47;38.85;;;;;;;18.21;66.31;101404.78;5034318;28;20017;-85
2023/05/15 08:00:41;;;;;;;44.15;39.70;;;;;;;18.28;64.62;101405.84;5033804;28;20030;-85
2023/05/15 08:03:07;;;;;;;44.10;39.50;;;;;;;18.34;64.14;101409.78;5028446;28;20037;-85
2023/05/15 08:05:32;;;;;;;43.45;38.67;;;;;;;18.21;64.27;101410.16;5034066;28;20475;-85
2023/05/15 08:07:57;;;;;;;43.80;39.43;;;;;;;18.34;64.71;101411.66;5033462;28;20018;-85
2023/05/15 08:10:22;;;;;;;42.08;37.53;;;;;;;18.62;63.28;101413.22;5023484;28;20301;-85
2023/05/15 08:12:49;;;;;;;39.38;35.47;;;;;;;18.92;61.34;101411.09;5024623;28;20442;-85
2023/05/15 08:15:15;;;;;;;39.13;35.03;;;;;;;19.00;61.46;101412.97;5031686;28;20033;-86
2023/05/15 08:17:40;;;;;;;39.55;35.28;;;;;;;19.38;59.97;101411.69;5036739;28;20025;-87
2023/05/15 08:20:06;;;;;;;39.67;34.50;;;;;;;19.66;59.36;101408.75;5036409;28;20061;-85
2023/05/15 08:22:32;;;;;;;39.30;35.13;;;;;;;19.72;58.40;101400.00;5036442;28;20392;-86
2023/05/15 08:24:58;;;;;;;40.20;36.10;;;;;;;19.69;58.09;101411.13;5026826;28;20025;-86
2023/05/15 08:27:24;;;;;;;39.72;35.80;;;;;;;19.89;57.37;101409.00;5023802;28;20036;-86
2023/05/15 08:29:50;;;;;;;39.95;35.00;;;;;;;20.17;58.89;101411.44;5026633;28;20033;-86
2023/05/15 08:32:15;;;;;;;39.20;35.20;;;;;;;20.17;56.90;101411.44;5035902;28;20468;-86
2023/05/15 08:34:41;;;;;;;38.83;34.70;;;;;;;20.22;55.82;101403.69;5037101;28;20033;-86
2023/05/15 08:37:06;;;;;;;38.85;34.70;;;;;;;20.10;55.47;101408.56;5035787;28;20053;-86
2023/05/15 08:39:31;;;;;;;36.20;32.50;;;;;;;20.21;54.83;101403.84;5037301;28;20029;-86
2023/05/15 08:42:06;;;;;;;35.50;31.73;;;;;;;20.21;55.47;101412.78;5024003;28;20773;-86
2023/05/15 08:44:32;;;;;;;37.05;32.95;;;;;;;20.06;55.45;101417.97;5036414;28;20395;-86
2023/05/15 08:46:58;;;;;;;36.88;32.95;;;;;;;20.06;55.33;101417.13;5037037;28;20150;-86
2023/05/15 08:49:38;;;;;;;34.85;31.23;;;;;;;20.17;56.52;101413.25;5037048;28;20025;-86
2023/05/15 08:52:04;;;;;;;33.88;30.50;;;;;;;20.11;54.44;101414.78;5027913;28;20065;-84
2023/05/15 08:54:29;;;;;;;33.65;30.13;;;;;;;20.12;53.70;101411.09;5030983;28;20052;-84
2023/05/15 08:56:55;;;;;;;34.58;30.75;;;;;;;20.31;54.91;101408.06;5036312;28;20036;-84
2023/05/15 08:59:21;;;;;;;34.05;30.58;;;;;;;20.52;55.72;101412.13;5035956;28;20106;-84
2023/05/15 09:01:46;;;;;;;40.00;31.98;;;;;;;20.61;54.46;101392.19;5037009;28;20045;-84
2023/05/15 09:04:15;;;;;;;34.40;30.90;;;;;;;20.84;55.10;101405.03;5032879;28;20663;-85
2023/05/15 09:06:42;;;;;;;36.35;30.60;;;;;;;20.75;53.20;101393.41;5021511;28;20777;-85
2023/05/15 09:09:08;;;;;;;33.22;29.73;;;;;;;20.76;53.98;101405.03;5036182;28;20061;-86
2023/05/15 09:11:34;;;;;;;37.03;28.92;;;;;;;20.89;51.82;101406.19;5032576;28;20038;-86
2023/05/15 09:14:00;;;;;;;32.42;29.20;;;;;;;21.14;52.45;101411.53;5035715;28;20061;-86
2023/05/15 09:16:26;;;;;;;33.85;29.10;;;;;;;21.12;52.50;101399.22;5036543;28;20076;-86
2023/05/15 09:18:52;;;;;;;32.22;28.92;;;;;;;21.04;53.40;101405.50;5036513;28;20453;-85
2023/05/15 09:21:25;;;;;;;29.75;26.50;;;;;;;21.10;52.60;101412.91;5027376;28;20034;-84
2023/05/15 09:23:51;;;;;;;31.67;28.15;;;;;;;21.22;52.37;101403.41;5024428;28;20108;-85
2023/05/15 09:26:20;;;;;;;31.17;27.92;;;;;;;21.02;53.66;101405.66;5035667;28;20104;-84
2023/05/15 09:28:46;;;;;;;28.80;25.83;;;;;;;20.94;52.16;101397.56;5035797;28;20044;-84
2023/05/15 09:31:12;;;;;;;28.80;25.83;;;;;;;20.85;52.38;101395.91;5036652;28;20029;-85
2023/05/15 09:33:39;;;;;;;28.73;25.85;;;;;;;20.77;53.33;101410.28;5027151;28;20029;-85
2023/05/15 09:36:07;;;;;;;29.00;26.00;;;;;;;20.67;53.32;101394.25;5037417;28;20112;-84
2023/05/15 09:38:33;;;;;;;28.77;25.45;;;;;;;20.70;52.55;101409.28;5027700;28;20026;-84
2023/05/15 09:41:04;;;;;;;29.27;26.30;;;;;;;20.54;54.78;101406.56;5034620;28;20029;-87
2023/05/15 09:43:33;;;;;;;30.35;26.95;;;;;;;20.22;53.48;101409.06;5038435;28;20021;-86
2023/05/15 09:46:01;;;;;;;31.52;28.15;;;;;;;20.07;55.73;101408.06;5053910;28;20036;-86
2023/05/15 09:48:28;;;;;;;31.88;28.20;;;;;;;19.87;54.95;101410.19;5056556;28;20040;-86
2023/05/15 09:50:55;;;;;;;30.58;27.42;;;;;;;19.78;55.44;101406.63;5057446;28;20030;-85
2023/05/15 09:53:21;;;;;;;31.73;27.60;;;;;;;19.60;56.57;101406.69;5040086;28;20048;-86
2023/05/15 09:55:46;;;;;;;31.48;28.02;;;;;;;19.50;56.63;101414.94;5032755;28;20483;-86
2023/05/15 09:58:14;;;;;;;30.10;26.17;;;;;;;19.43;57.73;101403.09;5034222;28;20467;-85
2023/05/15 10:00:43;;;;;;;30.85;27.10;;;;;;;19.35;58.29;101412.00;5035262;28;20040;-85
2023/05/15 10:03:09;;;;;;;30.33;26.73;;;;;;;19.30;57.37;101402.72;5051488;28;20439;-85
2023/05/15 10:05:35;;;;;;;31.20;27.85;;;;;;;19.31;57.90;101412.50;5031256;28;20065;-85
2023/05/15 10:08:00;;;;;;;29.90;26.65;;;;;;;19.19;57.45;101411.94;5028147;28;20053;-85
2023/05/15 10:10:28;;;;;;;27.92;25.13;;;;;;;19.08;58.38;101414.88;5034417;28;20079;-85
2023/05/15 10:13:03;;;;;;;28.60;25.67;;;;;;;19.10;58.29;101408.34;5034484;28;20040;-85
2023/05/15 10:15:29;;;;;;;29.90;26.52;;;;;;;19.04;60.25;101406.28;5028460;28;20475;-85
2023/05/15 10:17:54;;;;;;;31.70;25.85;;;;;;;19.07;58.75;101423.97;5032617;28;20074;-86
2023/05/15 10:20:24;;;;;;;29.15;24.92;;;;;;;18.85;59.66;101416.28;5035292;28;20056;-85
2023/05/15 10:22:55;;;;;;;27.73;23.70;;;;;;;18.86;60.50;101420.63;5034335;28;20079;-85
2023/05/15 10:25:31;;;;;;;27.55;24.67;;;;;;;18.64;60.25;101415.75;5019091;28;20068;-84
2023/05/15 10:27:57;;;;;;;26.13;23.27;;;;;;;18.69;61.23;101416.13;5027824;28;20072;-84
2023/05/15 10:30:24;;;;;;;26.67;23.90;;;;;;;18.60;60.95;101420.59;5032577;28;20049;-84
2023/05/15 10:32:50;;;;;;;26.98;23.33;;;;;;;18.57;60.98;101420.91;5031890;28;20086;-84
2023/05/15 10:35:16;;;;;;;30.33;25.23;;;;;;;18.54;61.35;101418.53;5035192;28;20049;-84
2023/05/15 10:37:44;;;;;;;28.73;24.70;;;;;;;18.40;61.69;101411.00;5033978;28;20072;-85
2023/05/15 10:40:10;;;;;;;28.23;24.65;;;;;;;18.52;60.77;101419.66;5027764;28;20037;-85
2023/05/15 10:42:39;;;;;;;31.63;25.55;;;;;;;18.47;60.73;101428.22;5037279;28;20071;-85
2023/05/15 10:45:07;;;;;;;28.08;25.08;;;;;;;18.45;62.19;101424.81;5037942;28;20484;-86
2023/05/15 10:47:33;;;;;;;27.23;24.33;;;;;;;18.31;61.31;101429.75;5042475;28;20446;-85
2023/05/15 10:49:59;;;;;;;28.42;23.85;;;;;;;18.35;62.18;101427.59;5037647;28;20045;-85
2023/05/15 10:52:24;;;;;;;28.25;24.77;;;;;;;18.41;61.60;101428.84;5033912;28;20029;-85
2023/05/15 10:54:52;;;;;;;31.35;24.08;;;;;;;18.31;63.67;101424.38;5045984;28;20060;-85
2023/05/15 10:57:20;;;;;;;34.22;24.92;;;;;;;18.40;63.35;101427.13;5033857;28;20036;-85
2023/05/15 10:59:46;;;;;;;28.30;25.27;;;;;;;18.35;63.04;101424.91;5028748;28;20026;-84
2023/05/15 11:02:29;;;;;;;28.20;25.30;;;;;;;18.36;63.74;101418.53;5034965;28;20029;-85
2023/05/15 11:04:56;;;;;;;29.45;26.35;;;;;;;18.20;64.07;101432.69;5028423;28;20061;-85
2023/05/15 11:07:23;;;;;;;30.00;26.88;;;;;;;18.14;62.72;101432.47;5033435;28;20033;-85